sensor_id;sensor_type;location;lat;lon;timestamp;P1;durP1;ratioP1;P2;durP2;ratioP2
7879;SDS011;3985;49.366;2.738;2022-12-07T00:00:54;73.00;;;52.33;;
7879;SDS011;3985;49.366;2.738;2022-12-07T00:03:22;68.33;;;54.33;;
7879;SDS011;3985;49.366;2.738;2022-12-07T00:05:49;54.67;;;44.67;;
7879;SDS011;3985;49.366;2.738;2022-12-07T00:08:17;47.00;;;40.00;;
7879;SDS011;3985;49.366;2.738;2022-12-07T00:10:45;54.67;;;45.67;;
7879;SDS011;3985;49.366;2.738;2022-12-07T00:13:12;69.00;;;54.67;;
7879;SDS011;3985;49.366;2.738;2022-12-07T00:15:40;60.00;;;51.00;;
7879;SDS011;3985;49.366;2.738;2022-12-07T00:18:09;75.33;;;55.33;;
7879;SDS011;3985;49.366;2.738;2022-12-07T00:20:37;66.33;;;54.33;;
7879;SDS011;3985;49.366;2.738;2022-12-07T00:23:04;63.33;;;47.33;;
7879;SDS011;3985;49.366;2.738;2022-12-07T00:25:32;68.33;;;56.00;;
7879;SDS011;3985;49.366;2.738;2022-12-07T00:27:59;65.67;;;54.33;;
7879;SDS011;3985;49.366;2.738;2022-12-07T00:30:27;66.67;;;54.00;;
7879;SDS011;3985;49.366;2.738;2022-12-07T00:32:54;63.67;;;51.67;;
7879;SDS011;3985;49.366;2.738;2022-12-07T00:35:24;72.67;;;57.00;;
7879;SDS011;3985;49.366;2.738;2022-12-07T00:37:51;66.00;;;52.00;;
7879;SDS011;3985;49.366;2.738;2022-12-07T00:40:19;75.00;;;58.67;;
7879;SDS011;3985;49.366;2.738;2022-12-07T00:42:46;58.67;;;48.67;;
7879;SDS011;3985;49.366;2.738;2022-12-07T00:45:14;52.67;;;43.00;;
7879;SDS011;3985;49.366;2.738;2022-12-07T00:47:42;56.00;;;46.00;;
7879;SDS011;3985;49.366;2.738;2022-12-07T00:50:10;62.00;;;49.33;;
7879;SDS011;3985;49.366;2.738;2022-12-07T00:52:39;49.00;;;45.00;;
7879;SDS011;3985;49.366;2.738;2022-12-07T00:55:07;49.00;;;42.67;;
7879;SDS011;3985;49.366;2.738;2022-12-07T00:57:35;36.67;;;34.00;;
7879;SDS011;3985;49.366;2.738;2022-12-07T01:00:03;45.00;;;39.67;;
7879;SDS011;3985;49.366;2.738;2022-12-07T01:02:32;37.33;;;32.67;;
7879;SDS011;3985;49.366;2.738;2022-12-07T01:05:01;37.67;;;36.67;;
7879;SDS011;3985;49.366;2.738;2022-12-07T01:07:28;44.33;;;39.00;;
7879;SDS011;3985;49.366;2.738;2022-12-07T01:09:57;40.67;;;36.67;;
7879;SDS011;3985;49.366;2.738;2022-12-07T01:12:25;39.00;;;37.00;;
7879;SDS011;3985;49.366;2.738;2022-12-07T01:14:52;40.67;;;40.67;;
7879;SDS011;3985;49.366;2.738;2022-12-07T01:17:20;40.67;;;39.00;;
7879;SDS011;3985;49.366;2.738;2022-12-07T01:19:48;30.67;;;28.00;;
7879;SDS011;3985;49.366;2.738;2022-12-07T01:22:15;31.00;;;28.00;;
7879;SDS011;3985;49.366;2.738;2022-12-07T01:24:43;33.67;;;31.67;;
7879;SDS011;3985;49.366;2.738;2022-12-07T01:27:14;48.33;;;37.67;;
7879;SDS011;3985;49.366;2.738;2022-12-07T01:29:42;39.33;;;39.33;;
7879;SDS011;3985;49.366;2.738;2022-12-07T01:32:10;29.67;;;26.00;;
7879;SDS011;3985;49.366;2.738;2022-12-07T01:34:38;39.00;;;36.67;;
7879;SDS011;3985;49.366;2.738;2022-12-07T01:37:06;36.33;;;34.67;;
7879;SDS011;3985;49.366;2.738;2022-12-07T01:39:33;38.67;;;35.00;;
7879;SDS011;3985;49.366;2.738;2022-12-07T01:42:02;35.00;;;31.67;;
7879;SDS011;3985;49.366;2.738;2022-12-07T01:44:32;40.33;;;33.33;;
7879;SDS011;3985;49.366;2.738;2022-12-07T01:47:14;59.00;;;45.33;;
7879;SDS011;3985;49.366;2.738;2022-12-07T01:49:42;54.33;;;45.00;;
7879;SDS011;3985;49.366;2.738;2022-12-07T01:52:13;49.00;;;40.33;;
7879;SDS011;3985;49.366;2.738;2022-12-07T01:54:43;62.67;;;45.33;;
7879;SDS011;3985;49.366;2.738;2022-12-07T01:57:13;56.00;;;50.33;;
7879;SDS011;3985;49.366;2.738;2022-12-07T01:59:43;39.00;;;35.67;;
7879;SDS011;3985;49.366;2.738;2022-12-07T02:02:13;55.33;;;46.00;;
7879;SDS011;3985;49.366;2.738;2022-12-07T02:04:45;53.00;;;49.00;;
7879;SDS011;3985;49.366;2.738;2022-12-07T02:07:13;50.33;;;46.33;;
7879;SDS011;3985;49.366;2.738;2022-12-07T02:09:40;46.00;;;43.33;;
7879;SDS011;3985;49.366;2.738;2022-12-07T02:12:08;52.67;;;45.67;;
7879;SDS011;3985;49.366;2.738;2022-12-07T02:14:36;35.67;;;35.67;;
7879;SDS011;3985;49.366;2.738;2022-12-07T02:17:07;46.00;;;43.67;;
7879;SDS011;3985;49.366;2.738;2022-12-07T02:22:39;49.33;;;44.00;;
7879;SDS011;3985;49.366;2.738;2022-12-07T02:25:41;39.67;;;39.67;;
7879;SDS011;3985;49.366;2.738;2022-12-07T02:28:19;48.00;;;44.00;;
7879;SDS011;3985;49.366;2.738;2022-12-07T02:30:53;55.33;;;46.00;;
7879;SDS011;3985;49.366;2.738;2022-12-07T02:33:23;59.00;;;45.00;;
7879;SDS011;3985;49.366;2.738;2022-12-07T02:35:53;55.67;;;46.33;;
7879;SDS011;3985;49.366;2.738;2022-12-07T02:38:26;54.67;;;45.33;;
7879;SDS011;3985;49.366;2.738;2022-12-07T02:40:57;49.00;;;41.33;;
7879;SDS011;3985;49.366;2.738;2022-12-07T02:43:30;44.67;;;41.67;;
7879;SDS011;3985;49.366;2.738;2022-12-07T02:46:03;60.67;;;48.67;;
7879;SDS011;3985;49.366;2.738;2022-12-07T02:48:32;48.33;;;42.00;;
7879;SDS011;3985;49.366;2.738;2022-12-07T02:51:01;45.67;;;42.00;;
7879;SDS011;3985;49.366;2.738;2022-12-07T02:53:29;47.67;;;42.67;;
7879;SDS011;3985;49.366;2.738;2022-12-07T02:55:57;51.67;;;42.33;;
7879;SDS011;3985;49.366;2.738;2022-12-07T02:58:28;36.67;;;32.33;;
7879;SDS011;3985;49.366;2.738;2022-12-07T03:01:08;44.67;;;40.67;;
7879;SDS011;3985;49.366;2.738;2022-12-07T03:03:41;50.67;;;44.67;;
7879;SDS011;3985;49.366;2.738;2022-12-07T03:06:15;45.33;;;42.00;;
7879;SDS011;3985;49.366;2.738;2022-12-07T03:08:49;42.33;;;39.00;;
7879;SDS011;3985;49.366;2.738;2022-12-07T03:11:22;43.67;;;41.67;;
7879;SDS011;3985;49.366;2.738;2022-12-07T03:13:55;47.67;;;43.33;;
7879;SDS011;3985;49.366;2.738;2022-12-07T03:16:31;46.67;;;44.67;;
7879;SDS011;3985;49.366;2.738;2022-12-07T03:19:02;50.00;;;44.67;;
7879;SDS011;3985;49.366;2.738;2022-12-07T03:21:35;52.00;;;46.33;;
7879;SDS011;3985;49.366;2.738;2022-12-07T03:24:05;49.33;;;42.67;;
7879;SDS011;3985;49.366;2.738;2022-12-07T03:26:36;47.67;;;42.33;;
7879;SDS011;3985;49.366;2.738;2022-12-07T03:29:07;53.67;;;44.67;;
7879;SDS011;3985;49.366;2.738;2022-12-07T03:31:41;56.33;;;45.00;;
7879;SDS011;3985;49.366;2.738;2022-12-07T03:34:12;32.00;;;29.00;;
7879;SDS011;3985;49.366;2.738;2022-12-07T03:36:45;53.33;;;46.33;;
7879;SDS011;3985;49.366;2.738;2022-12-07T03:39:19;44.67;;;42.67;;
7879;SDS011;3985;49.366;2.738;2022-12-07T03:41:50;49.33;;;41.00;;
7879;SDS011;3985;49.366;2.738;2022-12-07T03:44:18;57.67;;;46.00;;
7879;SDS011;3985;49.366;2.738;2022-12-07T03:46:50;45.00;;;43.33;;
7879;SDS011;3985;49.366;2.738;2022-12-07T03:49:23;52.00;;;44.33;;
7879;SDS011;3985;49.366;2.738;2022-12-07T03:51:54;41.00;;;39.33;;
7879;SDS011;3985;49.366;2.738;2022-12-07T03:54:26;59.00;;;49.33;;
7879;SDS011;3985;49.366;2.738;2022-12-07T03:56:57;43.67;;;42.67;;
7879;SDS011;3985;49.366;2.738;2022-12-07T03:59:25;45.33;;;41.33;;
7879;SDS011;3985;49.366;2.738;2022-12-07T04:01:56;36.33;;;34.67;;
7879;SDS011;3985;49.366;2.738;2022-12-07T04:04:28;54.33;;;46.33;;
7879;SDS011;3985;49.366;2.738;2022-12-07T04:06:56;45.00;;;41.33;;
7879;SDS011;3985;49.366;2.738;2022-12-07T04:09:24;47.00;;;41.00;;
7879;SDS011;3985;49.366;2.738;2022-12-07T04:11:52;39.33;;;39.33;;
7879;SDS011;3985;49.366;2.738;2022-12-07T04:14:20;56.00;;;47.00;;
7879;SDS011;3985;49.366;2.738;2022-12-07T04:16:50;47.00;;;40.33;;
7879;SDS011;3985;49.366;2.738;2022-12-07T04:19:22;48.00;;;43.67;;
7879;SDS011;3985;49.366;2.738;2022-12-07T04:21:50;54.67;;;44.67;;
7879;SDS011;3985;49.366;2.738;2022-12-07T04:24:19;44.67;;;41.33;;
7879;SDS011;3985;49.366;2.738;2022-12-07T04:26:47;48.00;;;36.67;;
7879;SDS011;3985;49.366;2.738;2022-12-07T04:29:15;37.00;;;37.00;;
7879;SDS011;3985;49.366;2.738;2022-12-07T04:31:43;49.00;;;41.67;;
7879;SDS011;3985;49.366;2.738;2022-12-07T04:34:11;44.33;;;38.00;;
7879;SDS011;3985;49.366;2.738;2022-12-07T04:36:43;45.00;;;42.00;;
7879;SDS011;3985;49.366;2.738;2022-12-07T04:39:14;49.67;;;44.67;;
7879;SDS011;3985;49.366;2.738;2022-12-07T04:41:46;47.33;;;42.33;;
7879;SDS011;3985;49.366;2.738;2022-12-07T04:44:14;53.33;;;40.33;;
7879;SDS011;3985;49.366;2.738;2022-12-07T04:46:42;47.00;;;41.33;;
7879;SDS011;3985;49.366;2.738;2022-12-07T04:49:10;48.00;;;42.00;;
7879;SDS011;3985;49.366;2.738;2022-12-07T04:51:38;49.67;;;44.67;;
7879;SDS011;3985;49.366;2.738;2022-12-07T04:54:07;55.00;;;45.33;;
7879;SDS011;3985;49.366;2.738;2022-12-07T04:56:34;42.67;;;40.33;;
7879;SDS011;3985;49.366;2.738;2022-12-07T04:59:02;52.00;;;42.00;;
7879;SDS011;3985;49.366;2.738;2022-12-07T05:01:31;40.67;;;40.67;;
7879;SDS011;3985;49.366;2.738;2022-12-07T05:03:59;47.33;;;41.00;;
7879;SDS011;3985;49.366;2.738;2022-12-07T05:06:26;47.33;;;40.33;;
7879;SDS011;3985;49.366;2.738;2022-12-07T05:08:54;46.67;;;41.00;;
7879;SDS011;3985;49.366;2.738;2022-12-07T05:11:23;50.67;;;44.67;;
7879;SDS011;3985;49.366;2.738;2022-12-07T05:14:07;49.33;;;42.67;;
7879;SDS011;3985;49.366;2.738;2022-12-07T05:16:38;43.33;;;39.00;;
7879;SDS011;3985;49.366;2.738;2022-12-07T05:19:06;36.33;;;30.67;;
7879;SDS011;3985;49.366;2.738;2022-12-07T05:21:34;49.67;;;41.33;;
7879;SDS011;3985;49.366;2.738;2022-12-07T05:24:02;40.67;;;40.67;;
7879;SDS011;3985;49.366;2.738;2022-12-07T05:26:32;47.33;;;40.33;;
7879;SDS011;3985;49.366;2.738;2022-12-07T05:29:00;35.67;;;34.00;;
7879;SDS011;3985;49.366;2.738;2022-12-07T05:31:28;47.33;;;40.33;;
7879;SDS011;3985;49.366;2.738;2022-12-07T05:33:56;37.33;;;35.67;;
7879;SDS011;3985;49.366;2.738;2022-12-07T05:36:23;39.67;;;34.33;;
7879;SDS011;3985;49.366;2.738;2022-12-07T05:38:53;41.33;;;39.00;;
7879;SDS011;3985;49.366;2.738;2022-12-07T05:41:21;39.67;;;35.33;;
7879;SDS011;3985;49.366;2.738;2022-12-07T05:44:07;47.33;;;41.00;;
7879;SDS011;3985;49.366;2.738;2022-12-07T05:46:35;39.00;;;38.00;;
7879;SDS011;3985;49.366;2.738;2022-12-07T05:49:02;39.33;;;37.33;;
7879;SDS011;3985;49.366;2.738;2022-12-07T05:51:31;42.67;;;39.00;;
7879;SDS011;3985;49.366;2.738;2022-12-07T05:53:59;48.33;;;40.67;;
7879;SDS011;3985;49.366;2.738;2022-12-07T05:56:27;51.33;;;41.00;;
7879;SDS011;3985;49.366;2.738;2022-12-07T05:58:54;44.00;;;41.00;;
7879;SDS011;3985;49.366;2.738;2022-12-07T06:01:41;20.00;;;20.00;;
7879;SDS011;3985;49.366;2.738;2022-12-07T06:04:09;50.67;;;41.33;;
7879;SDS011;3985;49.366;2.738;2022-12-07T06:06:36;37.00;;;36.00;;
7879;SDS011;3985;49.366;2.738;2022-12-07T06:09:04;48.33;;;45.00;;
7879;SDS011;3985;49.366;2.738;2022-12-07T06:11:31;44.67;;;41.00;;
7879;SDS011;3985;49.366;2.738;2022-12-07T06:14:16;45.67;;;41.00;;
7879;SDS011;3985;49.366;2.738;2022-12-07T06:16:51;43.00;;;36.00;;
7879;SDS011;3985;49.366;2.738;2022-12-07T06:19:19;46.00;;;42.00;;
7879;SDS011;3985;49.366;2.738;2022-12-07T06:21:47;53.00;;;43.67;;
7879;SDS011;3985;49.366;2.738;2022-12-07T06:24:16;49.33;;;44.00;;
7879;SDS011;3985;49.366;2.738;2022-12-07T06:26:44;49.33;;;44.33;;
7879;SDS011;3985;49.366;2.738;2022-12-07T06:29:11;36.00;;;32.67;;
7879;SDS011;3985;49.366;2.738;2022-12-07T06:31:39;48.67;;;40.00;;
7879;SDS011;3985;49.366;2.738;2022-12-07T06:34:11;53.00;;;42.67;;
7879;SDS011;3985;49.366;2.738;2022-12-07T06:36:40;43.00;;;39.33;;
7879;SDS011;3985;49.366;2.738;2022-12-07T06:39:08;35.00;;;32.67;;
7879;SDS011;3985;49.366;2.738;2022-12-07T06:41:36;49.67;;;42.33;;
7879;SDS011;3985;49.366;2.738;2022-12-07T06:44:03;44.67;;;40.00;;
7879;SDS011;3985;49.366;2.738;2022-12-07T06:46:32;45.33;;;38.33;;
7879;SDS011;3985;49.366;2.738;2022-12-07T06:49:00;46.33;;;38.33;;
7879;SDS011;3985;49.366;2.738;2022-12-07T06:51:29;30.00;;;30.00;;
7879;SDS011;3985;49.366;2.738;2022-12-07T06:53:56;44.33;;;41.00;;
7879;SDS011;3985;49.366;2.738;2022-12-07T06:56:24;58.33;;;44.00;;
7879;SDS011;3985;49.366;2.738;2022-12-07T06:58:51;43.33;;;40.00;;
7879;SDS011;3985;49.366;2.738;2022-12-07T07:01:19;47.67;;;42.00;;
7879;SDS011;3985;49.366;2.738;2022-12-07T07:03:46;42.00;;;41.33;;
7879;SDS011;3985;49.366;2.738;2022-12-07T07:06:14;43.33;;;39.33;;
7879;SDS011;3985;49.366;2.738;2022-12-07T07:08:42;48.33;;;40.33;;
7879;SDS011;3985;49.366;2.738;2022-12-07T07:11:11;44.33;;;42.33;;
7879;SDS011;3985;49.366;2.738;2022-12-07T07:13:39;42.67;;;42.00;;
7879;SDS011;3985;49.366;2.738;2022-12-07T07:16:07;47.67;;;40.00;;
7879;SDS011;3985;49.366;2.738;2022-12-07T07:18:35;37.00;;;37.00;;
7879;SDS011;3985;49.366;2.738;2022-12-07T07:21:03;45.67;;;41.67;;
7879;SDS011;3985;49.366;2.738;2022-12-07T07:23:33;44.00;;;40.33;;
7879;SDS011;3985;49.366;2.738;2022-12-07T07:26:02;59.33;;;43.67;;
7879;SDS011;3985;49.366;2.738;2022-12-07T07:28:30;53.67;;;40.67;;
7879;SDS011;3985;49.366;2.738;2022-12-07T07:30:57;38.33;;;38.33;;
7879;SDS011;3985;49.366;2.738;2022-12-07T07:33:25;50.67;;;43.00;;
7879;SDS011;3985;49.366;2.738;2022-12-07T07:35:52;44.67;;;39.00;;
7879;SDS011;3985;49.366;2.738;2022-12-07T07:38:20;40.67;;;39.33;;
7879;SDS011;3985;49.366;2.738;2022-12-07T07:40:47;38.00;;;38.00;;
7879;SDS011;3985;49.366;2.738;2022-12-07T07:43:17;40.00;;;36.00;;
7879;SDS011;3985;49.366;2.738;2022-12-07T07:45:45;48.67;;;40.00;;
7879;SDS011;3985;49.366;2.738;2022-12-07T07:48:12;36.67;;;36.33;;
7879;SDS011;3985;49.366;2.738;2022-12-07T07:50:40;30.00;;;28.67;;
7879;SDS011;3985;49.366;2.738;2022-12-07T07:53:08;37.75;;;34.50;;
7879;SDS011;3985;49.366;2.738;2022-12-07T07:55:35;45.00;;;37.33;;
7879;SDS011;3985;49.366;2.738;2022-12-07T07:58:02;38.33;;;30.67;;
7879;SDS011;3985;49.366;2.738;2022-12-07T08:00:31;54.00;;;45.00;;
7879;SDS011;3985;49.366;2.738;2022-12-07T08:02:59;45.67;;;40.00;;
7879;SDS011;3985;49.366;2.738;2022-12-07T08:05:26;51.33;;;43.67;;
7879;SDS011;3985;49.366;2.738;2022-12-07T08:07:53;43.67;;;38.00;;
7879;SDS011;3985;49.366;2.738;2022-12-07T08:10:21;52.00;;;43.67;;
7879;SDS011;3985;49.366;2.738;2022-12-07T08:12:48;40.00;;;38.67;;
7879;SDS011;3985;49.366;2.738;2022-12-07T08:15:35;53.33;;;47.00;;
7879;SDS011;3985;49.366;2.738;2022-12-07T08:18:04;45.67;;;40.67;;
7879;SDS011;3985;49.366;2.738;2022-12-07T08:20:32;56.33;;;47.00;;
7879;SDS011;3985;49.366;2.738;2022-12-07T08:23:00;59.33;;;49.00;;
7879;SDS011;3985;49.366;2.738;2022-12-07T08:25:28;46.33;;;39.33;;
7879;SDS011;3985;49.366;2.738;2022-12-07T08:27:55;49.33;;;42.33;;
7879;SDS011;3985;49.366;2.738;2022-12-07T08:30:23;52.00;;;43.33;;
7879;SDS011;3985;49.366;2.738;2022-12-07T08:32:52;60.00;;;47.67;;
7879;SDS011;3985;49.366;2.738;2022-12-07T08:35:19;54.00;;;44.67;;
7879;SDS011;3985;49.366;2.738;2022-12-07T08:37:47;60.00;;;43.33;;
7879;SDS011;3985;49.366;2.738;2022-12-07T08:40:15;48.33;;;42.67;;
7879;SDS011;3985;49.366;2.738;2022-12-07T08:42:43;54.33;;;44.67;;
7879;SDS011;3985;49.366;2.738;2022-12-07T08:45:14;53.33;;;44.00;;
7879;SDS011;3985;49.366;2.738;2022-12-07T08:47:43;51.67;;;43.33;;
7879;SDS011;3985;49.366;2.738;2022-12-07T08:50:14;45.67;;;41.67;;
7879;SDS011;3985;49.366;2.738;2022-12-07T08:52:41;52.00;;;42.67;;
7879;SDS011;3985;49.366;2.738;2022-12-07T08:55:09;37.67;;;35.67;;
7879;SDS011;3985;49.366;2.738;2022-12-07T08:57:38;39.25;;;37.75;;
7879;SDS011;3985;49.366;2.738;2022-12-07T09:00:06;51.25;;;45.75;;
7879;SDS011;3985;49.366;2.738;2022-12-07T09:02:37;51.75;;;44.50;;
7879;SDS011;3985;49.366;2.738;2022-12-07T09:05:10;42.25;;;40.75;;
7879;SDS011;3985;49.366;2.738;2022-12-07T09:07:41;45.75;;;41.50;;
7879;SDS011;3985;49.366;2.738;2022-12-07T09:10:10;50.25;;;42.00;;
7879;SDS011;3985;49.366;2.738;2022-12-07T09:12:38;55.50;;;44.25;;
7879;SDS011;3985;49.366;2.738;2022-12-07T09:15:06;48.75;;;43.25;;
7879;SDS011;3985;49.366;2.738;2022-12-07T09:17:34;45.25;;;42.00;;
7879;SDS011;3985;49.366;2.738;2022-12-07T09:20:03;59.50;;;43.50;;
7879;SDS011;3985;49.366;2.738;2022-12-07T09:22:33;45.00;;;39.75;;
7879;SDS011;3985;49.366;2.738;2022-12-07T09:25:02;43.00;;;39.75;;
7879;SDS011;3985;49.366;2.738;2022-12-07T09:27:30;54.00;;;42.25;;
7879;SDS011;3985;49.366;2.738;2022-12-07T09:29:58;47.75;;;40.00;;
7879;SDS011;3985;49.366;2.738;2022-12-07T09:32:25;35.00;;;35.00;;
7879;SDS011;3985;49.366;2.738;2022-12-07T09:34:59;56.75;;;44.00;;
7879;SDS011;3985;49.366;2.738;2022-12-07T09:37:29;44.25;;;40.75;;
7879;SDS011;3985;49.366;2.738;2022-12-07T09:40:06;43.25;;;39.00;;
7879;SDS011;3985;49.366;2.738;2022-12-07T09:42:42;42.50;;;39.75;;
7879;SDS011;3985;49.366;2.738;2022-12-07T09:45:14;42.25;;;40.25;;
7879;SDS011;3985;49.366;2.738;2022-12-07T09:47:43;48.25;;;39.50;;
7879;SDS011;3985;49.366;2.738;2022-12-07T09:50:12;45.00;;;40.75;;
7879;SDS011;3985;49.366;2.738;2022-12-07T09:52:41;40.00;;;38.00;;
7879;SDS011;3985;49.366;2.738;2022-12-07T09:55:13;35.50;;;32.75;;
7879;SDS011;3985;49.366;2.738;2022-12-07T09:57:41;48.75;;;41.75;;
7879;SDS011;3985;49.366;2.738;2022-12-07T10:00:11;53.50;;;43.75;;
7879;SDS011;3985;49.366;2.738;2022-12-07T10:02:42;44.75;;;40.25;;
7879;SDS011;3985;49.366;2.738;2022-12-07T10:05:12;45.75;;;41.25;;
7879;SDS011;3985;49.366;2.738;2022-12-07T10:07:41;55.00;;;45.75;;
7879;SDS011;3985;49.366;2.738;2022-12-07T10:10:14;36.75;;;33.75;;
7879;SDS011;3985;49.366;2.738;2022-12-07T10:12:53;38.75;;;34.00;;
7879;SDS011;3985;49.366;2.738;2022-12-07T10:15:38;34.25;;;33.75;;
7879;SDS011;3985;49.366;2.738;2022-12-07T10:23:59;48.25;;;39.75;;
7879;SDS011;3985;49.366;2.738;2022-12-07T10:26:31;43.75;;;39.75;;
7879;SDS011;3985;49.366;2.738;2022-12-07T10:29:01;38.50;;;36.50;;
7879;SDS011;3985;49.366;2.738;2022-12-07T10:31:39;51.75;;;40.00;;
7879;SDS011;3985;49.366;2.738;2022-12-07T10:34:14;43.25;;;39.00;;
7879;SDS011;3985;49.366;2.738;2022-12-07T10:36:49;39.50;;;32.75;;
7879;SDS011;3985;49.366;2.738;2022-12-07T10:39:17;34.25;;;31.00;;
7879;SDS011;3985;49.366;2.738;2022-12-07T10:41:54;38.75;;;32.25;;
7879;SDS011;3985;49.366;2.738;2022-12-07T10:44:23;36.25;;;34.50;;
7879;SDS011;3985;49.366;2.738;2022-12-07T10:46:54;44.00;;;37.25;;
7879;SDS011;3985;49.366;2.738;2022-12-07T10:49:38;42.00;;;37.25;;
7879;SDS011;3985;49.366;2.738;2022-12-07T10:52:23;43.00;;;34.50;;
7879;SDS011;3985;49.366;2.738;2022-12-07T10:55:02;37.50;;;32.25;;
7879;SDS011;3985;49.366;2.738;2022-12-07T11:00:58;37.25;;;32.50;;
7879;SDS011;3985;49.366;2.738;2022-12-07T11:03:36;40.00;;;34.25;;
7879;SDS011;3985;49.366;2.738;2022-12-07T11:06:15;35.75;;;35.75;;
7879;SDS011;3985;49.366;2.738;2022-12-07T11:08:51;25.50;;;25.50;;
7879;SDS011;3985;49.366;2.738;2022-12-07T11:11:30;10.50;;;8.25;;
7879;SDS011;3985;49.366;2.738;2022-12-07T11:14:01;35.25;;;31.25;;
7879;SDS011;3985;49.366;2.738;2022-12-07T11:19:28;29.75;;;29.75;;
7879;SDS011;3985;49.366;2.738;2022-12-07T11:22:09;33.25;;;31.00;;
7879;SDS011;3985;49.366;2.738;2022-12-07T11:24:43;19.75;;;14.25;;
7879;SDS011;3985;49.366;2.738;2022-12-07T11:27:19;21.00;;;17.75;;
7879;SDS011;3985;49.366;2.738;2022-12-07T11:29:57;17.25;;;13.50;;
7879;SDS011;3985;49.366;2.738;2022-12-07T11:32:45;14.50;;;14.50;;
7879;SDS011;3985;49.366;2.738;2022-12-07T11:35:24;17.00;;;15.00;;
7879;SDS011;3985;49.366;2.738;2022-12-07T11:38:01;14.25;;;14.25;;
7879;SDS011;3985;49.366;2.738;2022-12-07T11:40:36;17.00;;;16.25;;
7879;SDS011;3985;49.366;2.738;2022-12-07T11:43:05;17.00;;;17.00;;
7879;SDS011;3985;49.366;2.738;2022-12-07T11:45:41;17.50;;;17.50;;
7879;SDS011;3985;49.366;2.738;2022-12-07T11:48:10;16.00;;;16.00;;
7879;SDS011;3985;49.366;2.738;2022-12-07T11:50:46;22.00;;;17.75;;
7879;SDS011;3985;49.366;2.738;2022-12-07T11:53:17;17.50;;;14.75;;
7879;SDS011;3985;49.366;2.738;2022-12-07T11:55:52;12.00;;;10.25;;
7879;SDS011;3985;49.366;2.738;2022-12-07T12:01:28;17.75;;;16.50;;
7879;SDS011;3985;49.366;2.738;2022-12-07T12:04:04;17.75;;;14.75;;
7879;SDS011;3985;49.366;2.738;2022-12-07T12:06:41;21.25;;;18.50;;
7879;SDS011;3985;49.366;2.738;2022-12-07T12:09:11;17.25;;;15.75;;
7879;SDS011;3985;49.366;2.738;2022-12-07T12:11:47;16.00;;;15.50;;
7879;SDS011;3985;49.366;2.738;2022-12-07T12:14:40;17.00;;;17.00;;
7879;SDS011;3985;49.366;2.738;2022-12-07T12:17:20;22.00;;;19.25;;
7879;SDS011;3985;49.366;2.738;2022-12-07T12:20:15;20.25;;;14.50;;
7879;SDS011;3985;49.366;2.738;2022-12-07T12:22:48;17.50;;;17.00;;
7879;SDS011;3985;49.366;2.738;2022-12-07T12:25:21;17.75;;;14.00;;
7879;SDS011;3985;49.366;2.738;2022-12-07T12:27:49;18.75;;;17.00;;
7879;SDS011;3985;49.366;2.738;2022-12-07T12:30:31;19.75;;;16.00;;
7879;SDS011;3985;49.366;2.738;2022-12-07T12:33:02;17.50;;;15.00;;
7879;SDS011;3985;49.366;2.738;2022-12-07T12:35:31;17.75;;;14.50;;
7879;SDS011;3985;49.366;2.738;2022-12-07T12:40:54;27.50;;;25.00;;
7879;SDS011;3985;49.366;2.738;2022-12-07T12:43:49;50.50;;;39.25;;
7879;SDS011;3985;49.366;2.738;2022-12-07T12:49:14;18.00;;;18.00;;
7879;SDS011;3985;49.366;2.738;2022-12-07T12:55:17;24.50;;;23.75;;
7879;SDS011;3985;49.366;2.738;2022-12-07T12:57:47;20.25;;;19.50;;
7879;SDS011;3985;49.366;2.738;2022-12-07T13:00:30;17.50;;;17.25;;
7879;SDS011;3985;49.366;2.738;2022-12-07T13:02:58;27.50;;;24.25;;
7879;SDS011;3985;49.366;2.738;2022-12-07T13:05:26;29.00;;;26.25;;
7879;SDS011;3985;49.366;2.738;2022-12-07T13:07:59;30.75;;;27.25;;
7879;SDS011;3985;49.366;2.738;2022-12-07T13:13:33;19.75;;;18.50;;
7879;SDS011;3985;49.366;2.738;2022-12-07T13:25:19;29.00;;;23.75;;
7879;SDS011;3985;49.366;2.738;2022-12-07T13:27:54;23.75;;;21.00;;
7879;SDS011;3985;49.366;2.738;2022-12-07T13:30:24;13.50;;;13.00;;
7879;SDS011;3985;49.366;2.738;2022-12-07T13:32:53;19.75;;;18.25;;
7879;SDS011;3985;49.366;2.738;2022-12-07T13:35:31;25.25;;;23.00;;
7879;SDS011;3985;49.366;2.738;2022-12-07T13:38:04;18.50;;;15.50;;
7879;SDS011;3985;49.366;2.738;2022-12-07T13:40:43;22.75;;;20.00;;
7879;SDS011;3985;49.366;2.738;2022-12-07T13:43:46;12.25;;;12.25;;
7879;SDS011;3985;49.366;2.738;2022-12-07T13:46:16;20.00;;;17.25;;
7879;SDS011;3985;49.366;2.738;2022-12-07T13:48:46;21.25;;;18.50;;
7879;SDS011;3985;49.366;2.738;2022-12-07T13:51:20;34.75;;;30.00;;
7879;SDS011;3985;49.366;2.738;2022-12-07T13:53:49;16.50;;;13.25;;
7879;SDS011;3985;49.366;2.738;2022-12-07T13:56:20;17.50;;;17.50;;
7879;SDS011;3985;49.366;2.738;2022-12-07T13:58:50;22.50;;;22.50;;
7879;SDS011;3985;49.366;2.738;2022-12-07T14:01:18;18.50;;;18.00;;
7879;SDS011;3985;49.366;2.738;2022-12-07T14:03:47;15.75;;;15.75;;
7879;SDS011;3985;49.366;2.738;2022-12-07T14:06:17;31.00;;;24.75;;
7879;SDS011;3985;49.366;2.738;2022-12-07T14:08:47;22.50;;;20.25;;
7879;SDS011;3985;49.366;2.738;2022-12-07T14:11:15;14.50;;;13.25;;
7879;SDS011;3985;49.366;2.738;2022-12-07T14:13:58;25.75;;;24.00;;
7879;SDS011;3985;49.366;2.738;2022-12-07T14:16:27;16.75;;;14.50;;
7879;SDS011;3985;49.366;2.738;2022-12-07T14:18:56;31.25;;;27.00;;
7879;SDS011;3985;49.366;2.738;2022-12-07T14:21:25;41.00;;;35.75;;
7879;SDS011;3985;49.366;2.738;2022-12-07T14:24:08;24.25;;;18.25;;
7879;SDS011;3985;49.366;2.738;2022-12-07T14:26:44;21.25;;;21.25;;
7879;SDS011;3985;49.366;2.738;2022-12-07T14:29:33;42.75;;;39.00;;
7879;SDS011;3985;49.366;2.738;2022-12-07T14:32:12;25.25;;;22.25;;
7879;SDS011;3985;49.366;2.738;2022-12-07T14:34:53;23.50;;;22.00;;
7879;SDS011;3985;49.366;2.738;2022-12-07T14:37:23;15.00;;;15.00;;
7879;SDS011;3985;49.366;2.738;2022-12-07T14:39:51;19.00;;;19.00;;
7879;SDS011;3985;49.366;2.738;2022-12-07T14:42:19;29.25;;;25.50;;
7879;SDS011;3985;49.366;2.738;2022-12-07T14:44:59;50.25;;;40.50;;
7879;SDS011;3985;49.366;2.738;2022-12-07T14:47:27;37.00;;;36.25;;
7879;SDS011;3985;49.366;2.738;2022-12-07T14:50:03;18.75;;;14.75;;
7879;SDS011;3985;49.366;2.738;2022-12-07T14:52:31;20.25;;;15.00;;
7879;SDS011;3985;49.366;2.738;2022-12-07T14:55:01;23.00;;;22.00;;
7879;SDS011;3985;49.366;2.738;2022-12-07T14:57:29;17.00;;;17.00;;
7879;SDS011;3985;49.366;2.738;2022-12-07T14:59:56;18.75;;;17.00;;
7879;SDS011;3985;49.366;2.738;2022-12-07T15:02:26;17.25;;;17.25;;
7879;SDS011;3985;49.366;2.738;2022-12-07T15:04:53;23.50;;;19.00;;
7879;SDS011;3985;49.366;2.738;2022-12-07T15:07:21;28.50;;;27.00;;
7879;SDS011;3985;49.366;2.738;2022-12-07T15:09:49;33.00;;;30.75;;
7879;SDS011;3985;49.366;2.738;2022-12-07T15:12:18;29.75;;;28.50;;
7879;SDS011;3985;49.366;2.738;2022-12-07T15:14:45;47.00;;;42.00;;
7879;SDS011;3985;49.366;2.738;2022-12-07T15:17:13;30.50;;;29.75;;
7879;SDS011;3985;49.366;2.738;2022-12-07T15:19:42;45.75;;;40.25;;
7879;SDS011;3985;49.366;2.738;2022-12-07T15:22:16;35.00;;;29.75;;
7879;SDS011;3985;49.366;2.738;2022-12-07T15:24:57;35.00;;;29.25;;
7879;SDS011;3985;49.366;2.738;2022-12-07T15:27:39;22.00;;;19.00;;
7879;SDS011;3985;49.366;2.738;2022-12-07T15:30:07;25.50;;;23.00;;
7879;SDS011;3985;49.366;2.738;2022-12-07T15:32:38;32.75;;;28.75;;
7879;SDS011;3985;49.366;2.738;2022-12-07T15:35:08;27.50;;;24.00;;
7879;SDS011;3985;49.366;2.738;2022-12-07T15:37:36;43.50;;;40.00;;
7879;SDS011;3985;49.366;2.738;2022-12-07T15:40:05;36.75;;;33.25;;
7879;SDS011;3985;49.366;2.738;2022-12-07T15:42:35;18.25;;;18.00;;
7879;SDS011;3985;49.366;2.738;2022-12-07T15:45:05;36.75;;;31.00;;
7879;SDS011;3985;49.366;2.738;2022-12-07T15:47:34;34.75;;;31.00;;
7879;SDS011;3985;49.366;2.738;2022-12-07T15:50:03;33.50;;;32.25;;